METAR Data
IDs: Format: Raw Decoded Include TAF

Data at: 1907 UTC 25 Oct 2021

EKRK 251850Z AUTO 22009KT 3200 -RA BR OVC005/// 09/08 Q1015